Terminal Aerodrome Forecast
Issued by NWS

Home | Current Version | Previous Version | Text Only | Print | Product List | Glossary On
Versions: 1 2 3 4 5 6 7 8 9 10 11 12 13 14 15 16 17 18 19 20 21 22 23 24 25 26 27 28 29 30 31 32 33
596
FTAK31 PANC 060049 AAA
TAFADQ
TAF AMD
PADQ 060049Z 0601/0624 22006KT 3SM -SN SCT012 OVC025
      TEMPO 0601/0604 1SM -SN BR BKN007 BKN012
     FM060400 12007KT 6SM -SN OVC020
     FM061200 06007KT 3SM -SN BKN012 OVC020
     FM061800 32008KT P6SM VCSH SCT015 BKN025=

USA.gov is the U.S. government's official web portal to all federal, state and local government web resources and services.